sensor_id;sensor_type;location;lat;lon;timestamp;pressure;altitude;pressure_sealevel;temperature;humidity
58311;BME280;45001;52.218;5.154;2022-11-11T00:00:17;102757.81;;;17.25;59.82
58311;BME280;45001;52.218;5.154;2022-11-11T00:02:43;102758.69;;;17.26;59.79
58311;BME280;45001;52.218;5.154;2022-11-11T00:05:08;102768.59;;;17.25;59.56
58311;BME280;45001;52.218;5.154;2022-11-11T00:07:34;102763.19;;;17.25;59.85
58311;BME280;45001;52.218;5.154;2022-11-11T00:09:59;102768.78;;;17.24;59.88
58311;BME280;45001;52.218;5.154;2022-11-11T00:12:24;102771.28;;;17.25;59.68
58311;BME280;45001;52.218;5.154;2022-11-11T00:14:49;102758.00;;;17.24;59.67
58311;BME280;45001;52.218;5.154;2022-11-11T00:17:15;102754.28;;;17.25;59.82
58311;BME280;45001;52.218;5.154;2022-11-11T00:19:59;102758.13;;;17.22;59.80
58311;BME280;45001;52.218;5.154;2022-11-11T00:22:42;102761.53;;;17.24;59.67
58311;BME280;45001;52.218;5.154;2022-11-11T00:25:26;102764.34;;;17.23;59.87
58311;BME280;45001;52.218;5.154;2022-11-11T00:27:52;102763.53;;;17.22;59.95
58311;BME280;45001;52.218;5.154;2022-11-11T00:30:18;102759.13;;;17.21;59.75
58311;BME280;45001;52.218;5.154;2022-11-11T00:32:43;102763.53;;;17.22;59.54
58311;BME280;45001;52.218;5.154;2022-11-11T00:35:09;102760.81;;;17.22;59.92
58311;BME280;45001;52.218;5.154;2022-11-11T00:37:53;102757.56;;;17.19;59.76
58311;BME280;45001;52.218;5.154;2022-11-11T00:40:18;102754.75;;;17.20;59.81
58311;BME280;45001;52.218;5.154;2022-11-11T00:42:43;102754.75;;;17.20;59.71
58311;BME280;45001;52.218;5.154;2022-11-11T00:45:09;102759.25;;;17.20;59.88
58311;BME280;45001;52.218;5.154;2022-11-11T00:47:35;102752.03;;;17.20;60.01
58311;BME280;45001;52.218;5.154;2022-11-11T00:50:24;102750.19;;;17.21;59.73
58311;BME280;45001;52.218;5.154;2022-11-11T00:53:15;102738.38;;;17.22;59.76
58311;BME280;45001;52.218;5.154;2022-11-11T00:55:40;102731.59;;;17.18;59.98
58311;BME280;45001;52.218;5.154;2022-11-11T00:58:05;102734.16;;;17.19;59.71
58311;BME280;45001;52.218;5.154;2022-11-11T01:00:31;102731.75;;;17.16;59.94
58311;BME280;45001;52.218;5.154;2022-11-11T01:02:57;102734.28;;;17.18;59.90
58311;BME280;45001;52.218;5.154;2022-11-11T01:05:23;102735.16;;;17.18;59.90
58311;BME280;45001;52.218;5.154;2022-11-11T01:07:49;102739.00;;;17.16;59.86
58311;BME280;45001;52.218;5.154;2022-11-11T01:10:15;102737.13;;;17.16;60.16
58311;BME280;45001;52.218;5.154;2022-11-11T01:13:00;102743.41;;;17.17;59.93
58311;BME280;45001;52.218;5.154;2022-11-11T01:15:36;102750.63;;;17.16;60.01
58311;BME280;45001;52.218;5.154;2022-11-11T01:18:01;102748.94;;;17.15;60.09
58311;BME280;45001;52.218;5.154;2022-11-11T01:20:27;102742.53;;;17.16;60.08
58311;BME280;45001;52.218;5.154;2022-11-11T01:22:52;102740.00;;;17.15;59.89
58311;BME280;45001;52.218;5.154;2022-11-11T01:25:17;102738.44;;;17.12;60.09
58311;BME280;45001;52.218;5.154;2022-11-11T01:27:43;102729.38;;;17.13;60.03
58311;BME280;45001;52.218;5.154;2022-11-11T01:30:08;102735.75;;;17.12;59.65
58311;BME280;45001;52.218;5.154;2022-11-11T01:32:33;102740.16;;;17.13;60.05
58311;BME280;45001;52.218;5.154;2022-11-11T01:34:59;102746.53;;;17.12;60.19
58311;BME280;45001;52.218;5.154;2022-11-11T01:37:24;102741.97;;;17.13;60.14
58311;BME280;45001;52.218;5.154;2022-11-11T01:39:49;102750.22;;;17.11;59.82
58311;BME280;45001;52.218;5.154;2022-11-11T01:42:14;102759.16;;;17.12;60.05
58311;BME280;45001;52.218;5.154;2022-11-11T01:44:49;102757.31;;;17.12;60.03
58311;BME280;45001;52.218;5.154;2022-11-11T01:47:15;102753.75;;;17.12;60.01
58311;BME280;45001;52.218;5.154;2022-11-11T01:49:50;102762.00;;;17.10;59.97
58311;BME280;45001;52.218;5.154;2022-11-11T01:52:24;102756.75;;;17.09;59.90
58311;BME280;45001;52.218;5.154;2022-11-11T02:00:11;102741.59;;;17.08;59.94
58311;BME280;45001;52.218;5.154;2022-11-11T02:02:46;102748.81;;;17.07;59.73
58311;BME280;45001;52.218;5.154;2022-11-11T02:05:14;102742.28;;;17.10;59.91
58311;BME280;45001;52.218;5.154;2022-11-11T02:08:02;102745.13;;;17.08;60.30
58311;BME280;45001;52.218;5.154;2022-11-11T02:10:31;102739.72;;;17.08;60.31
58311;BME280;45001;52.218;5.154;2022-11-11T02:12:57;102732.63;;;17.07;60.13
58311;BME280;45001;52.218;5.154;2022-11-11T02:15:42;102734.34;;;17.08;60.15
58311;BME280;45001;52.218;5.154;2022-11-11T02:18:07;102734.47;;;17.07;60.21
58311;BME280;45001;52.218;5.154;2022-11-11T02:20:38;102740.72;;;17.07;59.94
58311;BME280;45001;52.218;5.154;2022-11-11T02:25:43;102734.47;;;17.07;60.33
58311;BME280;45001;52.218;5.154;2022-11-11T02:28:10;102729.94;;;17.07;60.27
58311;BME280;45001;52.218;5.154;2022-11-11T02:30:37;102726.53;;;17.05;60.01
58311;BME280;45001;52.218;5.154;2022-11-11T02:33:03;102730.94;;;17.06;60.27
58311;BME280;45001;52.218;5.154;2022-11-11T02:35:31;102731.78;;;17.07;60.23
58311;BME280;45001;52.218;5.154;2022-11-11T02:37:57;102730.09;;;17.05;60.25
58311;BME280;45001;52.218;5.154;2022-11-11T02:40:34;102726.53;;;17.05;60.00
58311;BME280;45001;52.218;5.154;2022-11-11T02:43:00;102730.09;;;17.05;60.02
58311;BME280;45001;52.218;5.154;2022-11-11T02:45:26;102726.72;;;17.03;60.10
58311;BME280;45001;52.218;5.154;2022-11-11T02:47:51;102730.25;;;17.04;60.21
58311;BME280;45001;52.218;5.154;2022-11-11T02:50:16;102731.09;;;17.04;60.22
58311;BME280;45001;52.218;5.154;2022-11-11T02:52:42;102738.34;;;17.04;60.30
58311;BME280;45001;52.218;5.154;2022-11-11T02:55:07;102737.50;;;17.03;60.06
58311;BME280;45001;52.218;5.154;2022-11-11T02:57:33;102748.28;;;17.03;60.25
58311;BME280;45001;52.218;5.154;2022-11-11T02:59:59;102742.00;;;17.03;60.04
58311;BME280;45001;52.218;5.154;2022-11-11T03:02:26;102753.66;;;17.03;60.27
58311;BME280;45001;52.218;5.154;2022-11-11T03:04:55;102753.66;;;17.03;59.85
58311;BME280;45001;52.218;5.154;2022-11-11T03:07:21;102760.88;;;17.03;60.29
58311;BME280;45001;52.218;5.154;2022-11-11T03:09:47;102763.72;;;17.01;60.57
58311;BME280;45001;52.218;5.154;2022-11-11T03:12:12;102768.97;;;17.03;60.37
58311;BME280;45001;52.218;5.154;2022-11-11T03:14:38;102767.41;;;17.00;60.51
58311;BME280;45001;52.218;5.154;2022-11-11T03:17:04;102776.34;;;17.01;60.42
58311;BME280;45001;52.218;5.154;2022-11-11T03:19:48;102779.75;;;17.03;60.36
58311;BME280;45001;52.218;5.154;2022-11-11T03:22:13;102778.91;;;17.02;60.16
58311;BME280;45001;52.218;5.154;2022-11-11T03:24:39;102776.47;;;16.99;60.31
58311;BME280;45001;52.218;5.154;2022-11-11T03:27:22;102776.47;;;16.99;60.21
58311;BME280;45001;52.218;5.154;2022-11-11T03:29:48;102777.34;;;17.00;60.35
58311;BME280;45001;52.218;5.154;2022-11-11T03:32:13;102771.22;;;16.98;60.11
58311;BME280;45001;52.218;5.154;2022-11-11T03:34:38;102772.25;;;16.97;60.33
58311;BME280;45001;52.218;5.154;2022-11-11T03:37:08;102778.34;;;16.99;60.29
58311;BME280;45001;52.218;5.154;2022-11-11T03:39:52;102782.00;;;16.98;60.40
58311;BME280;45001;52.218;5.154;2022-11-11T03:42:18;102784.56;;;16.99;59.97
58311;BME280;45001;52.218;5.154;2022-11-11T03:44:43;102788.28;;;16.98;60.15
58311;BME280;45001;52.218;5.154;2022-11-11T03:47:08;102798.19;;;16.98;60.41
58311;BME280;45001;52.218;5.154;2022-11-11T03:49:34;102786.56;;;16.97;60.11
58311;BME280;45001;52.218;5.154;2022-11-11T03:51:59;102791.09;;;16.97;60.09
58311;BME280;45001;52.218;5.154;2022-11-11T03:54:24;102791.94;;;16.97;60.48
58311;BME280;45001;52.218;5.154;2022-11-11T03:56:50;102794.66;;;16.97;60.08
58311;BME280;45001;52.218;5.154;2022-11-11T03:59:15;102794.66;;;16.97;60.11
58311;BME280;45001;52.218;5.154;2022-11-11T04:01:40;102801.19;;;16.95;60.29
58311;BME280;45001;52.218;5.154;2022-11-11T04:04:24;102795.94;;;16.93;60.39
58311;BME280;45001;52.218;5.154;2022-11-11T04:07:08;102802.16;;;16.94;60.39
58311;BME280;45001;52.218;5.154;2022-11-11T04:09:52;102794.09;;;17.03;60.25
58311;BME280;45001;52.218;5.154;2022-11-11T04:12:38;102787.09;;;17.20;60.09
58311;BME280;45001;52.218;5.154;2022-11-11T04:15:23;102789.56;;;17.41;59.37
58311;BME280;45001;52.218;5.154;2022-11-11T04:18:07;102792.56;;;17.66;58.97
58311;BME280;45001;52.218;5.154;2022-11-11T04:20:32;102789.03;;;17.83;58.39
58311;BME280;45001;52.218;5.154;2022-11-11T04:23:16;102787.44;;;18.00;58.24
58311;BME280;45001;52.218;5.154;2022-11-11T04:25:41;102787.91;;;18.14;57.63
58311;BME280;45001;52.218;5.154;2022-11-11T04:28:17;102768.28;;;18.30;57.17
58311;BME280;45001;52.218;5.154;2022-11-11T04:31:01;102755.09;;;18.45;56.89
58311;BME280;45001;52.218;5.154;2022-11-11T04:33:26;102755.72;;;18.56;56.54
58311;BME280;45001;52.218;5.154;2022-11-11T04:35:52;102756.28;;;18.68;56.34
58311;BME280;45001;52.218;5.154;2022-11-11T04:38:17;102751.97;;;18.75;56.13
58311;BME280;45001;52.218;5.154;2022-11-11T04:41:01;102751.19;;;18.83;56.05
58311;BME280;45001;52.218;5.154;2022-11-11T04:43:30;102749.34;;;18.84;55.98
58311;BME280;45001;52.218;5.154;2022-11-11T04:45:59;102740.75;;;18.88;55.93
58311;BME280;45001;52.218;5.154;2022-11-11T04:48:25;102742.97;;;18.93;55.93
58311;BME280;45001;52.218;5.154;2022-11-11T04:50:50;102743.66;;;18.95;55.93
58311;BME280;45001;52.218;5.154;2022-11-11T04:53:16;102744.34;;;18.97;55.94
58311;BME280;45001;52.218;5.154;2022-11-11T04:55:42;102745.03;;;18.99;55.86
58311;BME280;45001;52.218;5.154;2022-11-11T04:58:29;102741.19;;;19.02;55.86
58311;BME280;45001;52.218;5.154;2022-11-11T05:00:55;102745.75;;;19.01;55.90
58311;BME280;45001;52.218;5.154;2022-11-11T05:03:20;102747.72;;;18.99;55.86
58311;BME280;45001;52.218;5.154;2022-11-11T05:05:50;102752.78;;;18.94;56.14
58311;BME280;45001;52.218;5.154;2022-11-11T05:08:42;102745.69;;;18.93;56.17
58311;BME280;45001;52.218;5.154;2022-11-11T05:11:21;102750.44;;;18.99;56.08
58311;BME280;45001;52.218;5.154;2022-11-11T05:13:47;102740.34;;;19.01;56.17
58311;BME280;45001;52.218;5.154;2022-11-11T05:16:33;102755.38;;;19.04;56.03
58311;BME280;45001;52.218;5.154;2022-11-11T05:19:19;102753.66;;;19.03;56.06
58311;BME280;45001;52.218;5.154;2022-11-11T05:22:13;102765.81;;;18.98;56.25
58311;BME280;45001;52.218;5.154;2022-11-11T05:24:40;102759.19;;;18.93;56.50
58311;BME280;45001;52.218;5.154;2022-11-11T05:27:24;102754.44;;;18.87;56.59
58311;BME280;45001;52.218;5.154;2022-11-11T05:29:50;102754.75;;;18.84;56.59
58311;BME280;45001;52.218;5.154;2022-11-11T05:32:16;102756.88;;;18.80;56.94
58311;BME280;45001;52.218;5.154;2022-11-11T05:34:42;102768.16;;;18.75;57.07
58311;BME280;45001;52.218;5.154;2022-11-11T05:37:07;102768.78;;;18.69;57.12
58311;BME280;45001;52.218;5.154;2022-11-11T05:39:33;102766.56;;;18.65;57.29
58311;BME280;45001;52.218;5.154;2022-11-11T05:41:58;102770.75;;;18.59;57.45
58311;BME280;45001;52.218;5.154;2022-11-11T05:44:23;102766.66;;;18.55;57.48
58311;BME280;45001;52.218;5.154;2022-11-11T05:46:49;102765.97;;;18.53;57.47
58311;BME280;45001;52.218;5.154;2022-11-11T05:49:14;102760.09;;;18.57;57.47
58311;BME280;45001;52.218;5.154;2022-11-11T05:51:39;102768.44;;;18.64;57.39
58311;BME280;45001;52.218;5.154;2022-11-11T05:54:05;102761.53;;;18.70;57.30
58311;BME280;45001;52.218;5.154;2022-11-11T05:56:30;102760.38;;;18.72;57.14
58311;BME280;45001;52.218;5.154;2022-11-11T05:58:55;102769.31;;;18.73;57.18
58311;BME280;45001;52.218;5.154;2022-11-11T06:01:21;102762.53;;;18.69;56.86
58311;BME280;45001;52.218;5.154;2022-11-11T06:03:46;102763.72;;;18.66;57.45
58311;BME280;45001;52.218;5.154;2022-11-11T06:06:12;102765.88;;;18.63;57.31
58311;BME280;45001;52.218;5.154;2022-11-11T06:08:37;102762.63;;;18.59;57.43
58311;BME280;45001;52.218;5.154;2022-11-11T06:11:02;102777.47;;;18.55;57.49
58311;BME280;45001;52.218;5.154;2022-11-11T06:13:28;102776.94;;;18.51;57.74
58311;BME280;45001;52.218;5.154;2022-11-11T06:15:55;102777.91;;;18.50;57.84
58311;BME280;45001;52.218;5.154;2022-11-11T06:18:21;102786.56;;;18.54;57.77
58311;BME280;45001;52.218;5.154;2022-11-11T06:20:51;102787.75;;;18.51;57.99
58311;BME280;45001;52.218;5.154;2022-11-11T06:23:17;102784.19;;;18.51;57.73
58311;BME280;45001;52.218;5.154;2022-11-11T06:25:42;102790.88;;;18.47;57.78
58311;BME280;45001;52.218;5.154;2022-11-11T06:28:25;102792.22;;;18.43;58.00
58311;BME280;45001;52.218;5.154;2022-11-11T06:30:51;102803.50;;;18.38;58.03
58311;BME280;45001;52.218;5.154;2022-11-11T06:33:16;102813.75;;;18.34;58.34
58311;BME280;45001;52.218;5.154;2022-11-11T06:35:42;102814.03;;;18.31;58.36
58311;BME280;45001;52.218;5.154;2022-11-11T06:38:07;102826.84;;;18.29;58.19
58311;BME280;45001;52.218;5.154;2022-11-11T06:40:33;102826.56;;;18.32;58.40
58311;BME280;45001;52.218;5.154;2022-11-11T06:42:59;102828.50;;;18.40;58.03
58311;BME280;45001;52.218;5.154;2022-11-11T06:45:26;102820.59;;;18.47;57.73
58311;BME280;45001;52.218;5.154;2022-11-11T06:47:51;102826.25;;;18.53;57.41
58311;BME280;45001;52.218;5.154;2022-11-11T06:50:17;102823.59;;;18.62;57.12
58311;BME280;45001;52.218;5.154;2022-11-11T06:52:43;102825.84;;;18.66;56.97
58311;BME280;45001;52.218;5.154;2022-11-11T06:55:08;102840.34;;;18.65;56.86
58311;BME280;45001;52.218;5.154;2022-11-11T06:57:33;102839.13;;;18.59;56.75
58311;BME280;45001;52.218;5.154;2022-11-11T06:59:59;102840.59;;;18.54;56.89
58311;BME280;45001;52.218;5.154;2022-11-11T07:02:24;102844.75;;;18.48;56.96
58311;BME280;45001;52.218;5.154;2022-11-11T07:04:49;102840.66;;;18.44;56.94
58311;BME280;45001;52.218;5.154;2022-11-11T07:07:14;102843.84;;;18.39;57.19
58311;BME280;45001;52.218;5.154;2022-11-11T07:09:41;102844.16;;;18.36;57.08
58311;BME280;45001;52.218;5.154;2022-11-11T07:12:07;102854.81;;;18.38;57.02
58311;BME280;45001;52.218;5.154;2022-11-11T07:14:32;102843.22;;;18.46;56.94
58311;BME280;45001;52.218;5.154;2022-11-11T07:16:58;102848.94;;;18.43;56.82
58311;BME280;45001;52.218;5.154;2022-11-11T07:19:23;102849.25;;;18.39;56.84
58311;BME280;45001;52.218;5.154;2022-11-11T07:21:48;102851.56;;;18.34;56.83
58311;BME280;45001;52.218;5.154;2022-11-11T07:24:14;102852.53;;;18.33;56.74
58311;BME280;45001;52.218;5.154;2022-11-11T07:26:39;102850.31;;;18.29;57.18
58311;BME280;45001;52.218;5.154;2022-11-11T07:29:04;102854.34;;;18.25;56.87
58311;BME280;45001;52.218;5.154;2022-11-11T07:31:30;102855.31;;;18.24;56.91
58311;BME280;45001;52.218;5.154;2022-11-11T07:33:55;102862.56;;;18.23;57.03
58311;BME280;45001;52.218;5.154;2022-11-11T07:36:20;102862.94;;;18.28;56.93
58311;BME280;45001;52.218;5.154;2022-11-11T07:38:46;102865.91;;;18.35;56.84
58311;BME280;45001;52.218;5.154;2022-11-11T07:41:11;102863.13;;;18.45;56.47
58311;BME280;45001;52.218;5.154;2022-11-11T07:43:36;102868.44;;;18.54;55.98
58311;BME280;45001;52.218;5.154;2022-11-11T07:46:01;102867.00;;;18.60;56.26
58311;BME280;45001;52.218;5.154;2022-11-11T07:48:27;102866.81;;;18.62;56.56
58311;BME280;45001;52.218;5.154;2022-11-11T07:50:52;102868.69;;;18.61;56.34
58311;BME280;45001;52.218;5.154;2022-11-11T07:53:20;102869.53;;;18.62;56.40
58311;BME280;45001;52.218;5.154;2022-11-11T07:55:46;102864.44;;;18.58;56.87
58311;BME280;45001;52.218;5.154;2022-11-11T07:58:12;102870.16;;;18.55;56.57
58311;BME280;45001;52.218;5.154;2022-11-11T08:00:37;102874.03;;;18.53;56.69
58311;BME280;45001;52.218;5.154;2022-11-11T08:03:03;102879.03;;;18.48;56.74
58311;BME280;45001;52.218;5.154;2022-11-11T08:05:28;102879.31;;;18.45;56.77
58311;BME280;45001;52.218;5.154;2022-11-11T08:07:53;102884.44;;;18.48;56.68
58311;BME280;45001;52.218;5.154;2022-11-11T08:10:19;102882.13;;;18.53;56.69
58311;BME280;45001;52.218;5.154;2022-11-11T08:12:44;102883.81;;;18.54;56.60
58311;BME280;45001;52.218;5.154;2022-11-11T08:15:28;102881.25;;;18.52;56.52
58311;BME280;45001;52.218;5.154;2022-11-11T08:17:53;102887.81;;;18.50;56.56
58311;BME280;45001;52.218;5.154;2022-11-11T08:20:18;102893.84;;;18.44;56.84
58311;BME280;45001;52.218;5.154;2022-11-11T08:22:44;102902.09;;;18.42;56.27
58311;BME280;45001;52.218;5.154;2022-11-11T08:25:11;102901.56;;;18.38;56.58
58311;BME280;45001;52.218;5.154;2022-11-11T08:27:38;102901.56;;;18.38;56.69
58311;BME280;45001;52.218;5.154;2022-11-11T08:30:06;102900.84;;;18.36;57.02
58311;BME280;45001;52.218;5.154;2022-11-11T08:32:31;102904.41;;;18.37;56.62
58311;BME280;45001;52.218;5.154;2022-11-11T08:34:57;102908.13;;;18.36;56.77
58311;BME280;45001;52.218;5.154;2022-11-11T08:37:22;102909.41;;;18.32;56.98
58311;BME280;45001;52.218;5.154;2022-11-11T08:39:47;102913.25;;;18.29;57.05
58311;BME280;45001;52.218;5.154;2022-11-11T08:42:13;102910.16;;;18.24;57.13
58311;BME280;45001;52.218;5.154;2022-11-11T08:44:38;102907.47;;;18.24;57.07
58311;BME280;45001;52.218;5.154;2022-11-11T08:47:03;102915.00;;;18.20;57.07
58311;BME280;45001;52.218;5.154;2022-11-11T08:49:29;102912.44;;;18.19;57.19
58311;BME280;45001;52.218;5.154;2022-11-11T08:51:54;102918.59;;;18.21;57.23
58311;BME280;45001;52.218;5.154;2022-11-11T08:54:19;102916.31;;;18.16;57.05
58311;BME280;45001;52.218;5.154;2022-11-11T08:56:44;102914.72;;;18.24;56.92
58311;BME280;45001;52.218;5.154;2022-11-11T08:59:10;102908.56;;;18.31;56.88
58311;BME280;45001;52.218;5.154;2022-11-11T09:01:36;102910.63;;;18.37;56.51
58311;BME280;45001;52.218;5.154;2022-11-11T09:04:01;102920.25;;;18.50;56.31
58311;BME280;45001;52.218;5.154;2022-11-11T09:06:27;102917.47;;;18.59;55.95
58311;BME280;45001;52.218;5.154;2022-11-11T09:08:53;102929.84;;;18.62;55.80
58311;BME280;45001;52.218;5.154;2022-11-11T09:11:18;102923.41;;;18.63;55.75
58311;BME280;45001;52.218;5.154;2022-11-11T09:13:46;102926.44;;;18.60;55.95
58311;BME280;45001;52.218;5.154;2022-11-11T09:16:11;102941.94;;;18.58;56.13
58311;BME280;45001;52.218;5.154;2022-11-11T09:18:37;102946.63;;;18.56;56.03
58311;BME280;45001;52.218;5.154;2022-11-11T09:21:02;102948.97;;;18.51;56.14
58311;BME280;45001;52.218;5.154;2022-11-11T09:23:28;102953.63;;;18.49;56.38
58311;BME280;45001;52.218;5.154;2022-11-11T09:25:53;102958.66;;;18.44;56.30
58311;BME280;45001;52.218;5.154;2022-11-11T09:28:19;102959.66;;;18.43;56.47
58311;BME280;45001;52.218;5.154;2022-11-11T09:30:44;102965.19;;;18.41;56.73
58311;BME280;45001;52.218;5.154;2022-11-11T09:33:10;102972.47;;;18.40;56.64
58311;BME280;45001;52.218;5.154;2022-11-11T09:35:36;102968.22;;;18.38;56.70
58311;BME280;45001;52.218;5.154;2022-11-11T09:38:02;102962.13;;;18.36;56.87
58311;BME280;45001;52.218;5.154;2022-11-11T09:40:43;102970.38;;;18.34;56.72
58311;BME280;45001;52.218;5.154;2022-11-11T09:51:51;102970.44;;;18.25;57.05
58311;BME280;45001;52.218;5.154;2022-11-11T09:54:29;102971.28;;;18.25;56.93
58311;BME280;45001;52.218;5.154;2022-11-11T09:57:00;102975.84;;;18.25;56.86
58311;BME280;45001;52.218;5.154;2022-11-11T09:59:48;102978.34;;;18.26;56.92
58311;BME280;45001;52.218;5.154;2022-11-11T10:02:34;102970.13;;;18.28;57.01
58311;BME280;45001;52.218;5.154;2022-11-11T10:05:26;102981.75;;;18.28;56.90
58311;BME280;45001;52.218;5.154;2022-11-11T10:08:00;102980.06;;;18.27;56.86
58311;BME280;45001;52.218;5.154;2022-11-11T10:10:47;102978.69;;;18.23;56.91
58311;BME280;45001;52.218;5.154;2022-11-11T10:13:21;102984.06;;;18.23;56.98
58311;BME280;45001;52.218;5.154;2022-11-11T10:18:36;102989.63;;;18.21;56.91
58311;BME280;45001;52.218;5.154;2022-11-11T10:21:15;103005.97;;;18.20;56.92
58311;BME280;45001;52.218;5.154;2022-11-11T10:23:47;103004.25;;;18.19;57.04
58311;BME280;45001;52.218;5.154;2022-11-11T10:26:24;103000.00;;;18.16;56.92
58311;BME280;45001;52.218;5.154;2022-11-11T10:28:52;103011.97;;;18.14;57.00
58311;BME280;45001;52.218;5.154;2022-11-11T10:31:20;103015.66;;;18.13;57.33
58311;BME280;45001;52.218;5.154;2022-11-11T10:34:02;103007.97;;;18.18;57.03
58311;BME280;45001;52.218;5.154;2022-11-11T10:36:29;103006.94;;;18.19;56.16
58311;BME280;45001;52.218;5.154;2022-11-11T10:39:00;103008.53;;;18.21;55.67
58311;BME280;45001;52.218;5.154;2022-11-11T10:41:33;102998.41;;;18.24;56.23
58311;BME280;45001;52.218;5.154;2022-11-11T10:44:17;103003.69;;;18.25;55.98
58311;BME280;45001;52.218;5.154;2022-11-11T10:46:52;103004.66;;;18.24;55.59
58311;BME280;45001;52.218;5.154;2022-11-11T10:49:21;103014.47;;;18.25;56.28
58311;BME280;45001;52.218;5.154;2022-11-11T10:51:51;103012.06;;;18.22;56.34
58311;BME280;45001;52.218;5.154;2022-11-11T10:54:28;103005.97;;;18.20;56.33
58311;BME280;45001;52.218;5.154;2022-11-11T10:57:21;103013.38;;;18.18;56.47
58311;BME280;45001;52.218;5.154;2022-11-11T10:59:53;103007.97;;;18.18;56.56
58311;BME280;45001;52.218;5.154;2022-11-11T11:02:25;103013.38;;;18.18;56.41
58311;BME280;45001;52.218;5.154;2022-11-11T11:05:21;103010.66;;;18.18;56.71
58311;BME280;45001;52.218;5.154;2022-11-11T11:07:52;102995.31;;;18.18;56.65
58311;BME280;45001;52.218;5.154;2022-11-11T11:10:25;102997.31;;;18.16;56.77
58311;BME280;45001;52.218;5.154;2022-11-11T11:13:12;102989.34;;;18.15;56.71
58311;BME280;45001;52.218;5.154;2022-11-11T11:15:42;102997.75;;;18.12;56.86
58311;BME280;45001;52.218;5.154;2022-11-11T11:18:14;102998.59;;;18.12;56.94
58311;BME280;45001;52.218;5.154;2022-11-11T11:20:58;102993.63;;;18.08;56.93
58311;BME280;45001;52.218;5.154;2022-11-11T11:23:44;102989.94;;;18.09;56.76
58311;BME280;45001;52.218;5.154;2022-11-11T11:26:12;102987.41;;;18.07;57.16
58311;BME280;45001;52.218;5.154;2022-11-11T11:28:57;103000.06;;;18.07;56.98
58311;BME280;45001;52.218;5.154;2022-11-11T11:31:34;102999.34;;;18.05;57.04
58311;BME280;45001;52.218;5.154;2022-11-11T11:34:00;102987.53;;;18.06;56.96
58311;BME280;45001;52.218;5.154;2022-11-11T11:36:26;102987.84;;;18.02;57.15
58311;BME280;45001;52.218;5.154;2022-11-11T11:38:51;102981.91;;;17.99;57.26
58311;BME280;45001;52.218;5.154;2022-11-11T11:41:17;102979.34;;;17.97;57.23
58311;BME280;45001;52.218;5.154;2022-11-11T11:43:59;102980.03;;;17.99;57.12
58311;BME280;45001;52.218;5.154;2022-11-11T11:46:37;102982.03;;;17.97;57.50
58311;BME280;45001;52.218;5.154;2022-11-11T11:49:28;102970.22;;;17.98;57.22
58311;BME280;45001;52.218;5.154;2022-11-11T11:52:09;102984.88;;;17.96;57.20
58311;BME280;45001;52.218;5.154;2022-11-11T11:54:56;102983.03;;;17.96;57.39
58311;BME280;45001;52.218;5.154;2022-11-11T11:57:56;102980.31;;;17.96;57.31
58311;BME280;45001;52.218;5.154;2022-11-11T12:00:30;102979.47;;;17.96;57.37
58311;BME280;45001;52.218;5.154;2022-11-11T12:05:54;102979.19;;;17.99;57.24
58311;BME280;45001;52.218;5.154;2022-11-11T12:08:39;102977.91;;;18.03;57.27
58311;BME280;45001;52.218;5.154;2022-11-11T12:16:39;102971.94;;;17.99;57.28
58311;BME280;45001;52.218;5.154;2022-11-11T12:22:07;102974.63;;;17.99;57.49
58311;BME280;45001;52.218;5.154;2022-11-11T12:24:47;102969.25;;;17.99;57.35
58311;BME280;45001;52.218;5.154;2022-11-11T12:27:36;102971.25;;;17.97;56.91
58311;BME280;45001;52.218;5.154;2022-11-11T12:30:11;102956.03;;;17.96;57.61
58311;BME280;45001;52.218;5.154;2022-11-11T12:33:01;102961.59;;;17.95;57.39
58311;BME280;45001;52.218;5.154;2022-11-11T12:35:46;102960.44;;;17.97;57.35
58311;BME280;45001;52.218;5.154;2022-11-11T12:41:04;102967.16;;;17.93;57.41
58311;BME280;45001;52.218;5.154;2022-11-11T12:54:25;102954.94;;;17.89;57.55
58311;BME280;45001;52.218;5.154;2022-11-11T13:05:21;102958.63;;;17.88;57.60
58311;BME280;45001;52.218;5.154;2022-11-11T13:11:15;102955.09;;;17.88;57.67
58311;BME280;45001;52.218;5.154;2022-11-11T13:16:23;102948.81;;;17.87;57.84
58311;BME280;45001;52.218;5.154;2022-11-11T13:19:13;102953.25;;;17.88;57.56
58311;BME280;45001;52.218;5.154;2022-11-11T13:21:48;102955.09;;;17.88;57.59
58311;BME280;45001;52.218;5.154;2022-11-11T13:24:20;102949.97;;;17.85;57.67
58311;BME280;45001;52.218;5.154;2022-11-11T13:26:53;102956.66;;;17.80;57.67
58311;BME280;45001;52.218;5.154;2022-11-11T13:32:11;102949.25;;;17.82;57.54
58311;BME280;45001;52.218;5.154;2022-11-11T13:34:39;102952.09;;;17.81;57.61
58311;BME280;45001;52.218;5.154;2022-11-11T13:37:06;102955.81;;;17.80;57.64
58311;BME280;45001;52.218;5.154;2022-11-11T13:39:37;102945.72;;;17.82;57.49
58311;BME280;45001;52.218;5.154;2022-11-11T13:42:04;102952.22;;;17.79;57.29
58311;BME280;45001;52.218;5.154;2022-11-11T13:44:34;102954.94;;;17.79;57.53
58311;BME280;45001;52.218;5.154;2022-11-11T13:47:06;102952.22;;;17.79;57.55
58311;BME280;45001;52.218;5.154;2022-11-11T13:49:37;102959.47;;;17.79;57.64
58311;BME280;45001;52.218;5.154;2022-11-11T13:52:19;102956.66;;;17.80;57.49
58311;BME280;45001;52.218;5.154;2022-11-11T13:54:57;102949.53;;;17.79;57.52
58311;BME280;45001;52.218;5.154;2022-11-11T13:57:24;102949.53;;;17.79;57.60
58311;BME280;45001;52.218;5.154;2022-11-11T13:59:59;102943.72;;;17.84;57.47
58311;BME280;45001;52.218;5.154;2022-11-11T14:02:28;102933.88;;;17.93;57.04
58311;BME280;45001;52.218;5.154;2022-11-11T14:15:45;102939.31;;;18.20;56.31
58311;BME280;45001;52.218;5.154;2022-11-11T14:28:32;102947.16;;;18.14;56.74